Terminal Aerodrome Forecast
Issued by NWS

Home | Current Version | Previous Version | Text Only | Print | Product List | Glossary Off
Versions: 1 2 3 4 5 6 7 8 9 10 11 12 13 14 15

000
FTUS43 KBIS 240500
TAFMOT
TAF
KMOT 240540Z 2406/2506 24011KT P6SM SCT250
     FM240900 26008KT P6SM SCT070 BKN120
     FM241500 30008KT P6SM OVC035
     FM241800 33012KT 5SM -RA BR OVC010
     FM242100 31010KT 3SM -RA BR OVC006
     FM250100 29015KT 5SM -SN BR OVC010=

USA.gov is the U.S. government's official web portal to all federal, state and local government web resources and services.